sensor_id;sensor_type;location;lat;lon;timestamp;P1;durP1;ratioP1;P2;durP2;ratioP2
46777;SDS011;32536;47.128;8.746;2022-11-13T00:01:12;1.45;;;0.88;;
46777;SDS011;32536;47.128;8.746;2022-11-13T00:03:43;1.65;;;0.80;;
46777;SDS011;32536;47.128;8.746;2022-11-13T00:06:10;1.20;;;0.90;;
46777;SDS011;32536;47.128;8.746;2022-11-13T00:08:39;1.90;;;1.20;;
46777;SDS011;32536;47.128;8.746;2022-11-13T00:11:07;1.33;;;0.95;;
46777;SDS011;32536;47.128;8.746;2022-11-13T00:13:38;1.75;;;1.08;;
46777;SDS011;32536;47.128;8.746;2022-11-13T00:16:05;2.20;;;1.30;;
46777;SDS011;32536;47.128;8.746;2022-11-13T00:18:36;1.92;;;0.82;;
46777;SDS011;32536;47.128;8.746;2022-11-13T00:21:08;1.80;;;0.98;;
46777;SDS011;32536;47.128;8.746;2022-11-13T00:23:39;1.77;;;1.27;;
46777;SDS011;32536;47.128;8.746;2022-11-13T00:26:07;1.98;;;1.25;;
46777;SDS011;32536;47.128;8.746;2022-11-13T00:28:40;2.42;;;1.40;;
46777;SDS011;32536;47.128;8.746;2022-11-13T00:31:08;2.45;;;1.27;;
46777;SDS011;32536;47.128;8.746;2022-11-13T00:33:37;2.30;;;1.30;;
46777;SDS011;32536;47.128;8.746;2022-11-13T00:36:05;1.55;;;1.13;;
46777;SDS011;32536;47.128;8.746;2022-11-13T00:38:44;2.03;;;1.17;;
46777;SDS011;32536;47.128;8.746;2022-11-13T00:41:12;2.00;;;1.02;;
46777;SDS011;32536;47.128;8.746;2022-11-13T00:43:39;1.65;;;1.45;;
46777;SDS011;32536;47.128;8.746;2022-11-13T00:46:06;1.85;;;1.20;;
46777;SDS011;32536;47.128;8.746;2022-11-13T00:48:34;1.73;;;1.15;;
46777;SDS011;32536;47.128;8.746;2022-11-13T00:51:02;1.25;;;0.75;;
46777;SDS011;32536;47.128;8.746;2022-11-13T00:53:29;2.15;;;1.13;;
46777;SDS011;32536;47.128;8.746;2022-11-13T00:55:56;1.83;;;1.02;;
46777;SDS011;32536;47.128;8.746;2022-11-13T00:58:25;1.13;;;0.88;;
46777;SDS011;32536;47.128;8.746;2022-11-13T01:00:52;2.08;;;1.17;;
46777;SDS011;32536;47.128;8.746;2022-11-13T01:03:18;1.30;;;1.02;;
46777;SDS011;32536;47.128;8.746;2022-11-13T01:05:46;1.67;;;1.08;;
46777;SDS011;32536;47.128;8.746;2022-11-13T01:08:13;1.80;;;1.15;;
46777;SDS011;32536;47.128;8.746;2022-11-13T01:10:45;3.45;;;1.20;;
46777;SDS011;32536;47.128;8.746;2022-11-13T01:13:13;2.25;;;1.35;;
46777;SDS011;32536;47.128;8.746;2022-11-13T01:15:41;1.45;;;1.08;;
46777;SDS011;32536;47.128;8.746;2022-11-13T01:18:10;1.65;;;1.17;;
46777;SDS011;32536;47.128;8.746;2022-11-13T01:20:37;1.55;;;1.20;;
46777;SDS011;32536;47.128;8.746;2022-11-13T01:23:04;1.65;;;1.13;;
46777;SDS011;32536;47.128;8.746;2022-11-13T01:25:31;1.73;;;1.25;;
46777;SDS011;32536;47.128;8.746;2022-11-13T01:28:00;0.98;;;0.65;;
46777;SDS011;32536;47.128;8.746;2022-11-13T01:30:45;1.42;;;1.23;;
46777;SDS011;32536;47.128;8.746;2022-11-13T01:35:38;1.38;;;0.80;;
46777;SDS011;32536;47.128;8.746;2022-11-13T01:38:05;1.58;;;0.98;;
46777;SDS011;32536;47.128;8.746;2022-11-13T01:40:31;2.28;;;1.00;;
46777;SDS011;32536;47.128;8.746;2022-11-13T01:42:58;2.05;;;1.20;;
46777;SDS011;32536;47.128;8.746;2022-11-13T01:48:27;1.75;;;1.00;;
46777;SDS011;32536;47.128;8.746;2022-11-13T01:51:12;1.90;;;1.25;;
46777;SDS011;32536;47.128;8.746;2022-11-13T01:53:49;1.33;;;0.90;;
46777;SDS011;32536;47.128;8.746;2022-11-13T01:56:16;1.67;;;1.02;;
46777;SDS011;32536;47.128;8.746;2022-11-13T01:58:45;1.17;;;1.00;;
46777;SDS011;32536;47.128;8.746;2022-11-13T02:01:22;1.23;;;0.93;;
46777;SDS011;32536;47.128;8.746;2022-11-13T02:03:49;1.23;;;1.02;;
46777;SDS011;32536;47.128;8.746;2022-11-13T02:06:15;1.40;;;1.02;;
46777;SDS011;32536;47.128;8.746;2022-11-13T02:08:44;2.03;;;1.17;;
46777;SDS011;32536;47.128;8.746;2022-11-13T02:11:11;2.03;;;1.13;;
46777;SDS011;32536;47.128;8.746;2022-11-13T02:13:38;1.65;;;0.88;;
46777;SDS011;32536;47.128;8.746;2022-11-13T02:16:05;1.58;;;1.10;;
46777;SDS011;32536;47.128;8.746;2022-11-13T02:18:35;1.38;;;1.08;;
46777;SDS011;32536;47.128;8.746;2022-11-13T02:26:57;1.65;;;0.98;;
46777;SDS011;32536;47.128;8.746;2022-11-13T02:29:29;2.88;;;1.40;;
46777;SDS011;32536;47.128;8.746;2022-11-13T02:31:56;2.38;;;1.45;;
46777;SDS011;32536;47.128;8.746;2022-11-13T02:34:23;1.92;;;0.95;;
46777;SDS011;32536;47.128;8.746;2022-11-13T02:36:50;1.80;;;1.67;;
46777;SDS011;32536;47.128;8.746;2022-11-13T02:39:17;1.88;;;1.10;;
46777;SDS011;32536;47.128;8.746;2022-11-13T02:41:44;1.42;;;0.93;;
46777;SDS011;32536;47.128;8.746;2022-11-13T02:44:11;2.15;;;1.70;;
46777;SDS011;32536;47.128;8.746;2022-11-13T02:46:37;1.83;;;1.10;;
46777;SDS011;32536;47.128;8.746;2022-11-13T02:49:04;1.35;;;0.88;;
46777;SDS011;32536;47.128;8.746;2022-11-13T02:51:32;1.33;;;1.10;;
46777;SDS011;32536;47.128;8.746;2022-11-13T02:53:59;1.15;;;0.93;;
46777;SDS011;32536;47.128;8.746;2022-11-13T02:56:26;1.88;;;1.23;;
46777;SDS011;32536;47.128;8.746;2022-11-13T02:58:52;1.63;;;1.00;;
46777;SDS011;32536;47.128;8.746;2022-11-13T03:01:19;1.90;;;1.08;;
46777;SDS011;32536;47.128;8.746;2022-11-13T03:03:46;2.08;;;1.20;;
46777;SDS011;32536;47.128;8.746;2022-11-13T03:06:13;2.97;;;1.35;;
46777;SDS011;32536;47.128;8.746;2022-11-13T03:08:40;1.65;;;1.17;;
46777;SDS011;32536;47.128;8.746;2022-11-13T03:11:07;1.38;;;0.80;;
46777;SDS011;32536;47.128;8.746;2022-11-13T03:13:36;2.75;;;1.35;;
46777;SDS011;32536;47.128;8.746;2022-11-13T03:16:11;2.83;;;1.42;;
46777;SDS011;32536;47.128;8.746;2022-11-13T03:18:40;2.78;;;1.48;;
46777;SDS011;32536;47.128;8.746;2022-11-13T03:21:08;2.70;;;1.60;;
46777;SDS011;32536;47.128;8.746;2022-11-13T03:23:38;2.42;;;1.20;;
46777;SDS011;32536;47.128;8.746;2022-11-13T03:26:08;2.70;;;1.45;;
46777;SDS011;32536;47.128;8.746;2022-11-13T03:28:38;2.20;;;1.25;;
46777;SDS011;32536;47.128;8.746;2022-11-13T03:31:05;2.45;;;1.52;;
46777;SDS011;32536;47.128;8.746;2022-11-13T03:33:32;2.35;;;0.93;;
46777;SDS011;32536;47.128;8.746;2022-11-13T03:35:59;1.83;;;1.00;;
46777;SDS011;32536;47.128;8.746;2022-11-13T03:38:26;1.95;;;1.30;;
46777;SDS011;32536;47.128;8.746;2022-11-13T03:40:53;1.23;;;0.88;;
46777;SDS011;32536;47.128;8.746;2022-11-13T03:43:20;2.05;;;1.15;;
46777;SDS011;32536;47.128;8.746;2022-11-13T03:45:46;4.07;;;1.13;;
46777;SDS011;32536;47.128;8.746;2022-11-13T03:48:14;2.28;;;1.20;;
46777;SDS011;32536;47.128;8.746;2022-11-13T03:50:42;1.55;;;1.10;;
46777;SDS011;32536;47.128;8.746;2022-11-13T03:53:12;1.88;;;1.42;;
46777;SDS011;32536;47.128;8.746;2022-11-13T03:55:40;1.95;;;1.05;;
46777;SDS011;32536;47.128;8.746;2022-11-13T03:58:08;2.33;;;1.48;;
46777;SDS011;32536;47.128;8.746;2022-11-13T04:00:35;1.58;;;0.88;;
46777;SDS011;32536;47.128;8.746;2022-11-13T04:03:02;2.25;;;0.90;;
46777;SDS011;32536;47.128;8.746;2022-11-13T04:05:29;2.25;;;1.45;;
46777;SDS011;32536;47.128;8.746;2022-11-13T04:07:56;2.03;;;1.02;;
46777;SDS011;32536;47.128;8.746;2022-11-13T04:10:24;1.98;;;1.23;;
46777;SDS011;32536;47.128;8.746;2022-11-13T04:12:51;1.83;;;1.23;;
46777;SDS011;32536;47.128;8.746;2022-11-13T04:15:17;3.03;;;1.33;;
46777;SDS011;32536;47.128;8.746;2022-11-13T04:17:44;1.88;;;1.60;;
46777;SDS011;32536;47.128;8.746;2022-11-13T04:20:11;2.55;;;1.00;;
46777;SDS011;32536;47.128;8.746;2022-11-13T04:22:38;3.08;;;1.08;;
46777;SDS011;32536;47.128;8.746;2022-11-13T04:25:05;1.27;;;0.75;;
46777;SDS011;32536;47.128;8.746;2022-11-13T04:27:32;2.25;;;1.17;;
46777;SDS011;32536;47.128;8.746;2022-11-13T04:30:00;2.25;;;1.55;;
46777;SDS011;32536;47.128;8.746;2022-11-13T04:32:27;1.85;;;1.02;;
46777;SDS011;32536;47.128;8.746;2022-11-13T04:34:54;2.38;;;1.23;;
46777;SDS011;32536;47.128;8.746;2022-11-13T04:37:20;1.80;;;1.15;;
46777;SDS011;32536;47.128;8.746;2022-11-13T04:39:47;2.03;;;1.20;;
46777;SDS011;32536;47.128;8.746;2022-11-13T04:42:14;1.38;;;0.98;;
46777;SDS011;32536;47.128;8.746;2022-11-13T04:44:59;2.13;;;1.20;;
46777;SDS011;32536;47.128;8.746;2022-11-13T04:47:26;1.92;;;1.15;;
46777;SDS011;32536;47.128;8.746;2022-11-13T04:49:53;2.25;;;1.63;;
46777;SDS011;32536;47.128;8.746;2022-11-13T04:52:19;1.55;;;1.17;;
46777;SDS011;32536;47.128;8.746;2022-11-13T04:54:46;2.15;;;0.90;;
46777;SDS011;32536;47.128;8.746;2022-11-13T04:57:13;2.85;;;1.45;;
46777;SDS011;32536;47.128;8.746;2022-11-13T04:59:40;4.25;;;1.83;;
46777;SDS011;32536;47.128;8.746;2022-11-13T05:02:06;2.42;;;1.17;;
46777;SDS011;32536;47.128;8.746;2022-11-13T05:04:33;2.35;;;1.10;;
46777;SDS011;32536;47.128;8.746;2022-11-13T05:07:00;2.25;;;1.10;;
46777;SDS011;32536;47.128;8.746;2022-11-13T05:09:27;1.55;;;1.05;;
46777;SDS011;32536;47.128;8.746;2022-11-13T05:11:54;1.95;;;1.08;;
46777;SDS011;32536;47.128;8.746;2022-11-13T05:14:20;1.80;;;1.20;;
46777;SDS011;32536;47.128;8.746;2022-11-13T05:16:47;2.00;;;0.93;;
46777;SDS011;32536;47.128;8.746;2022-11-13T05:19:15;1.55;;;0.93;;
46777;SDS011;32536;47.128;8.746;2022-11-13T05:21:42;1.67;;;1.08;;
46777;SDS011;32536;47.128;8.746;2022-11-13T05:24:09;1.33;;;1.05;;
46777;SDS011;32536;47.128;8.746;2022-11-13T05:26:37;1.80;;;1.48;;
46777;SDS011;32536;47.128;8.746;2022-11-13T05:29:05;2.05;;;1.83;;
46777;SDS011;32536;47.128;8.746;2022-11-13T05:31:32;1.73;;;1.02;;
46777;SDS011;32536;47.128;8.746;2022-11-13T05:33:58;2.10;;;1.27;;
46777;SDS011;32536;47.128;8.746;2022-11-13T05:36:27;1.67;;;1.25;;
46777;SDS011;32536;47.128;8.746;2022-11-13T05:38:54;3.15;;;1.98;;
46777;SDS011;32536;47.128;8.746;2022-11-13T05:41:20;2.35;;;1.17;;
46777;SDS011;32536;47.128;8.746;2022-11-13T05:43:48;2.33;;;1.52;;
46777;SDS011;32536;47.128;8.746;2022-11-13T05:46:22;1.67;;;1.08;;
46777;SDS011;32536;47.128;8.746;2022-11-13T05:48:58;2.05;;;1.25;;
46777;SDS011;32536;47.128;8.746;2022-11-13T05:51:27;2.22;;;1.25;;
46777;SDS011;32536;47.128;8.746;2022-11-13T05:53:57;2.55;;;1.92;;
46777;SDS011;32536;47.128;8.746;2022-11-13T05:56:25;2.85;;;1.65;;
46777;SDS011;32536;47.128;8.746;2022-11-13T05:58:56;1.63;;;1.27;;
46777;SDS011;32536;47.128;8.746;2022-11-13T06:01:31;2.15;;;1.27;;
46777;SDS011;32536;47.128;8.746;2022-11-13T06:04:05;2.30;;;1.27;;
46777;SDS011;32536;47.128;8.746;2022-11-13T06:06:33;3.63;;;1.33;;
46777;SDS011;32536;47.128;8.746;2022-11-13T06:09:01;4.63;;;1.70;;
46777;SDS011;32536;47.128;8.746;2022-11-13T06:11:30;2.47;;;1.15;;
46777;SDS011;32536;47.128;8.746;2022-11-13T06:13:57;3.47;;;1.15;;
46777;SDS011;32536;47.128;8.746;2022-11-13T06:16:26;2.33;;;1.20;;
46777;SDS011;32536;47.128;8.746;2022-11-13T06:19:02;2.40;;;1.42;;
46777;SDS011;32536;47.128;8.746;2022-11-13T06:21:32;7.03;;;2.33;;
46777;SDS011;32536;47.128;8.746;2022-11-13T06:24:02;6.22;;;2.22;;
46777;SDS011;32536;47.128;8.746;2022-11-13T06:26:30;5.03;;;2.17;;
46777;SDS011;32536;47.128;8.746;2022-11-13T06:28:59;5.53;;;1.73;;
46777;SDS011;32536;47.128;8.746;2022-11-13T06:31:30;6.03;;;1.90;;
46777;SDS011;32536;47.128;8.746;2022-11-13T06:34:00;3.50;;;1.40;;
46777;SDS011;32536;47.128;8.746;2022-11-13T06:36:30;3.63;;;1.75;;
46777;SDS011;32536;47.128;8.746;2022-11-13T06:39:00;6.43;;;1.63;;
46777;SDS011;32536;47.128;8.746;2022-11-13T06:41:30;4.50;;;1.67;;
46777;SDS011;32536;47.128;8.746;2022-11-13T06:43:57;5.13;;;1.70;;
46777;SDS011;32536;47.128;8.746;2022-11-13T06:46:26;5.95;;;1.83;;
46777;SDS011;32536;47.128;8.746;2022-11-13T06:48:54;5.35;;;2.10;;
46777;SDS011;32536;47.128;8.746;2022-11-13T06:51:23;4.50;;;1.90;;
46777;SDS011;32536;47.128;8.746;2022-11-13T06:53:53;2.53;;;1.42;;
46777;SDS011;32536;47.128;8.746;2022-11-13T06:56:21;2.60;;;1.08;;
46777;SDS011;32536;47.128;8.746;2022-11-13T06:58:48;4.97;;;1.60;;
46777;SDS011;32536;47.128;8.746;2022-11-13T07:01:16;1.85;;;1.05;;
46777;SDS011;32536;47.128;8.746;2022-11-13T07:03:47;5.18;;;1.90;;
46777;SDS011;32536;47.128;8.746;2022-11-13T07:06:15;2.92;;;1.17;;
46777;SDS011;32536;47.128;8.746;2022-11-13T07:08:44;2.30;;;1.02;;
46777;SDS011;32536;47.128;8.746;2022-11-13T07:11:16;3.58;;;1.60;;
46777;SDS011;32536;47.128;8.746;2022-11-13T07:13:45;6.63;;;2.55;;
46777;SDS011;32536;47.128;8.746;2022-11-13T07:16:12;3.95;;;2.08;;
46777;SDS011;32536;47.128;8.746;2022-11-13T07:18:41;5.22;;;2.33;;
46777;SDS011;32536;47.128;8.746;2022-11-13T07:21:09;7.15;;;2.75;;
46777;SDS011;32536;47.128;8.746;2022-11-13T07:23:38;4.68;;;2.17;;
46777;SDS011;32536;47.128;8.746;2022-11-13T07:26:08;5.90;;;2.25;;
46777;SDS011;32536;47.128;8.746;2022-11-13T07:28:36;6.82;;;2.45;;
46777;SDS011;32536;47.128;8.746;2022-11-13T07:31:06;6.03;;;2.42;;
46777;SDS011;32536;47.128;8.746;2022-11-13T07:33:34;7.47;;;2.67;;
46777;SDS011;32536;47.128;8.746;2022-11-13T07:36:00;4.20;;;2.40;;
46777;SDS011;32536;47.128;8.746;2022-11-13T07:38:27;3.65;;;1.35;;
46777;SDS011;32536;47.128;8.746;2022-11-13T07:40:56;2.60;;;1.33;;
46777;SDS011;32536;47.128;8.746;2022-11-13T07:43:24;3.00;;;1.42;;
46777;SDS011;32536;47.128;8.746;2022-11-13T07:45:51;3.83;;;1.55;;
46777;SDS011;32536;47.128;8.746;2022-11-13T07:48:19;3.03;;;1.38;;
46777;SDS011;32536;47.128;8.746;2022-11-13T07:50:49;3.95;;;1.50;;
46777;SDS011;32536;47.128;8.746;2022-11-13T07:53:16;3.42;;;1.45;;
46777;SDS011;32536;47.128;8.746;2022-11-13T07:55:44;3.65;;;1.25;;
46777;SDS011;32536;47.128;8.746;2022-11-13T07:58:12;2.78;;;1.10;;
46777;SDS011;32536;47.128;8.746;2022-11-13T08:00:39;1.95;;;1.23;;
46777;SDS011;32536;47.128;8.746;2022-11-13T08:03:07;1.95;;;1.25;;
46777;SDS011;32536;47.128;8.746;2022-11-13T08:05:39;6.47;;;2.35;;
46777;SDS011;32536;47.128;8.746;2022-11-13T08:08:07;5.68;;;2.30;;
46777;SDS011;32536;47.128;8.746;2022-11-13T08:10:38;6.25;;;2.30;;
46777;SDS011;32536;47.128;8.746;2022-11-13T08:13:07;3.50;;;1.63;;
46777;SDS011;32536;47.128;8.746;2022-11-13T08:15:35;3.28;;;1.50;;
46777;SDS011;32536;47.128;8.746;2022-11-13T08:18:03;6.15;;;2.30;;
46777;SDS011;32536;47.128;8.746;2022-11-13T08:20:31;9.85;;;3.03;;
46777;SDS011;32536;47.128;8.746;2022-11-13T08:22:59;7.18;;;2.55;;
46777;SDS011;32536;47.128;8.746;2022-11-13T08:25:28;4.65;;;2.20;;
46777;SDS011;32536;47.128;8.746;2022-11-13T08:27:57;7.35;;;2.95;;
46777;SDS011;32536;47.128;8.746;2022-11-13T08:30:24;5.82;;;2.40;;
46777;SDS011;32536;47.128;8.746;2022-11-13T08:32:52;3.28;;;1.88;;
46777;SDS011;32536;47.128;8.746;2022-11-13T08:35:20;10.85;;;3.42;;
46777;SDS011;32536;47.128;8.746;2022-11-13T08:37:48;7.95;;;3.15;;
46777;SDS011;32536;47.128;8.746;2022-11-13T08:40:14;4.97;;;2.28;;
46777;SDS011;32536;47.128;8.746;2022-11-13T08:42:41;6.90;;;2.42;;
46777;SDS011;32536;47.128;8.746;2022-11-13T08:45:08;3.45;;;1.67;;
46777;SDS011;32536;47.128;8.746;2022-11-13T08:47:35;3.05;;;1.60;;
46777;SDS011;32536;47.128;8.746;2022-11-13T08:50:03;2.95;;;1.52;;
46777;SDS011;32536;47.128;8.746;2022-11-13T08:52:31;1.85;;;1.08;;
46777;SDS011;32536;47.128;8.746;2022-11-13T08:54:58;3.55;;;1.45;;
46777;SDS011;32536;47.128;8.746;2022-11-13T08:57:25;2.60;;;1.17;;
46777;SDS011;32536;47.128;8.746;2022-11-13T08:59:52;1.45;;;0.95;;
46777;SDS011;32536;47.128;8.746;2022-11-13T09:02:18;2.65;;;1.38;;
46777;SDS011;32536;47.128;8.746;2022-11-13T09:04:45;2.03;;;0.85;;
46777;SDS011;32536;47.128;8.746;2022-11-13T09:07:12;2.83;;;1.55;;
46777;SDS011;32536;47.128;8.746;2022-11-13T09:09:39;2.45;;;1.50;;
46777;SDS011;32536;47.128;8.746;2022-11-13T09:12:06;2.65;;;1.42;;
46777;SDS011;32536;47.128;8.746;2022-11-13T09:14:33;2.50;;;1.40;;
46777;SDS011;32536;47.128;8.746;2022-11-13T09:17:01;2.65;;;1.58;;
46777;SDS011;32536;47.128;8.746;2022-11-13T09:19:28;1.60;;;0.90;;
46777;SDS011;32536;47.128;8.746;2022-11-13T09:21:55;2.25;;;1.10;;
46777;SDS011;32536;47.128;8.746;2022-11-13T09:24:22;2.42;;;1.52;;
46777;SDS011;32536;47.128;8.746;2022-11-13T09:26:48;2.35;;;1.77;;
46777;SDS011;32536;47.128;8.746;2022-11-13T09:29:15;2.45;;;1.58;;
46777;SDS011;32536;47.128;8.746;2022-11-13T09:31:43;3.72;;;1.58;;
46777;SDS011;32536;47.128;8.746;2022-11-13T09:34:10;2.25;;;0.98;;
46777;SDS011;32536;47.128;8.746;2022-11-13T09:36:37;1.13;;;0.82;;
46777;SDS011;32536;47.128;8.746;2022-11-13T09:39:04;1.20;;;1.02;;
46777;SDS011;32536;47.128;8.746;2022-11-13T09:41:36;2.03;;;1.30;;
46777;SDS011;32536;47.128;8.746;2022-11-13T09:44:16;1.48;;;0.95;;
46777;SDS011;32536;47.128;8.746;2022-11-13T09:49:51;1.60;;;1.05;;
46777;SDS011;32536;47.128;8.746;2022-11-13T09:55:03;1.63;;;1.13;;
46777;SDS011;32536;47.128;8.746;2022-11-13T10:00:22;1.25;;;0.88;;
46777;SDS011;32536;47.128;8.746;2022-11-13T10:06:09;1.80;;;1.05;;
46777;SDS011;32536;47.128;8.746;2022-11-13T10:09:33;1.70;;;1.02;;
46777;SDS011;32536;47.128;8.746;2022-11-13T10:12:17;1.40;;;0.85;;
46777;SDS011;32536;47.128;8.746;2022-11-13T10:14:45;1.83;;;1.23;;
46777;SDS011;32536;47.128;8.746;2022-11-13T10:17:22;1.55;;;0.98;;
46777;SDS011;32536;47.128;8.746;2022-11-13T10:20:04;2.85;;;1.40;;
46777;SDS011;32536;47.128;8.746;2022-11-13T10:27:56;2.85;;;1.63;;
46777;SDS011;32536;47.128;8.746;2022-11-13T10:30:26;2.92;;;1.73;;
46777;SDS011;32536;47.128;8.746;2022-11-13T10:33:00;3.17;;;1.65;;
46777;SDS011;32536;47.128;8.746;2022-11-13T10:38:05;1.65;;;1.13;;
46777;SDS011;32536;47.128;8.746;2022-11-13T10:40:49;2.65;;;1.77;;
46777;SDS011;32536;47.128;8.746;2022-11-13T10:45:55;2.40;;;1.30;;
46777;SDS011;32536;47.128;8.746;2022-11-13T10:48:28;2.95;;;1.42;;
46777;SDS011;32536;47.128;8.746;2022-11-13T10:53:41;2.10;;;1.48;;
46777;SDS011;32536;47.128;8.746;2022-11-13T11:01:44;1.45;;;0.80;;
46777;SDS011;32536;47.128;8.746;2022-11-13T11:04:13;1.58;;;0.77;;
46777;SDS011;32536;47.128;8.746;2022-11-13T11:06:52;2.13;;;1.50;;
46777;SDS011;32536;47.128;8.746;2022-11-13T11:09:27;1.45;;;0.90;;
46777;SDS011;32536;47.128;8.746;2022-11-13T11:28:48;3.47;;;1.80;;
46777;SDS011;32536;47.128;8.746;2022-11-13T11:34:23;2.38;;;1.15;;
46777;SDS011;32536;47.128;8.746;2022-11-13T11:37:01;2.17;;;1.05;;
46777;SDS011;32536;47.128;8.746;2022-11-13T11:42:25;2.45;;;1.60;;
46777;SDS011;32536;47.128;8.746;2022-11-13T11:45:03;2.20;;;1.27;;
46777;SDS011;32536;47.128;8.746;2022-11-13T11:47:33;2.47;;;1.30;;
46777;SDS011;32536;47.128;8.746;2022-11-13T11:50:00;2.58;;;1.17;;
46777;SDS011;32536;47.128;8.746;2022-11-13T12:01:38;2.95;;;1.77;;
46777;SDS011;32536;47.128;8.746;2022-11-13T12:04:56;2.78;;;1.20;;
46777;SDS011;32536;47.128;8.746;2022-11-13T12:13:32;2.50;;;1.23;;
46777;SDS011;32536;47.128;8.746;2022-11-13T12:16:39;2.45;;;1.38;;
46777;SDS011;32536;47.128;8.746;2022-11-13T12:20:17;2.60;;;1.17;;
46777;SDS011;32536;47.128;8.746;2022-11-13T12:23:03;3.20;;;1.77;;
46777;SDS011;32536;47.128;8.746;2022-11-13T12:35:08;1.80;;;1.33;;
46777;SDS011;32536;47.128;8.746;2022-11-13T12:38:08;2.65;;;1.60;;
46777;SDS011;32536;47.128;8.746;2022-11-13T12:41:48;3.13;;;1.67;;
46777;SDS011;32536;47.128;8.746;2022-11-13T12:46:49;2.63;;;1.60;;
46777;SDS011;32536;47.128;8.746;2022-11-13T12:54:24;3.80;;;1.80;;
46777;SDS011;32536;47.128;8.746;2022-11-13T12:57:06;3.53;;;1.52;;
46777;SDS011;32536;47.128;8.746;2022-11-13T12:59:56;2.83;;;1.33;;
46777;SDS011;32536;47.128;8.746;2022-11-13T13:17:03;3.78;;;1.70;;
46777;SDS011;32536;47.128;8.746;2022-11-13T13:19:39;3.08;;;1.40;;
46777;SDS011;32536;47.128;8.746;2022-11-13T13:22:09;4.88;;;2.58;;
46777;SDS011;32536;47.128;8.746;2022-11-13T13:24:58;3.15;;;1.33;;
46777;SDS011;32536;47.128;8.746;2022-11-13T13:27:56;4.35;;;2.15;;
46777;SDS011;32536;47.128;8.746;2022-11-13T13:36:34;3.65;;;1.60;;
46777;SDS011;32536;47.128;8.746;2022-11-13T13:39:30;2.67;;;1.30;;
46777;SDS011;32536;47.128;8.746;2022-11-13T13:48:00;3.30;;;1.55;;
46777;SDS011;32536;47.128;8.746;2022-11-13T13:50:31;2.40;;;1.15;;
46777;SDS011;32536;47.128;8.746;2022-11-13T13:53:03;2.38;;;1.30;;
46777;SDS011;32536;47.128;8.746;2022-11-13T13:55:35;2.85;;;1.67;;
46777;SDS011;32536;47.128;8.746;2022-11-13T13:58:08;3.55;;;1.42;;
46777;SDS011;32536;47.128;8.746;2022-11-13T14:00:53;3.97;;;1.73;;
46777;SDS011;32536;47.128;8.746;2022-11-13T14:03:23;4.28;;;1.70;;
46777;SDS011;32536;47.128;8.746;2022-11-13T14:05:50;3.28;;;1.50;;
46777;SDS011;32536;47.128;8.746;2022-11-13T14:08:18;2.33;;;1.33;;
46777;SDS011;32536;47.128;8.746;2022-11-13T14:10:49;2.28;;;1.17;;
46777;SDS011;32536;47.128;8.746;2022-11-13T14:13:24;2.33;;;1.08;;
46777;SDS011;32536;47.128;8.746;2022-11-13T14:16:03;1.73;;;0.95;;
46777;SDS011;32536;47.128;8.746;2022-11-13T14:18:32;1.70;;;0.95;;
46777;SDS011;32536;47.128;8.746;2022-11-13T14:21:01;2.40;;;1.13;;
46777;SDS011;32536;47.128;8.746;2022-11-13T14:23:46;1.95;;;1.08;;
46777;SDS011;32536;47.128;8.746;2022-11-13T14:26:16;2.65;;;1.48;;
46777;SDS011;32536;47.128;8.746;2022-11-13T14:31:32;2.60;;;1.40;;
46777;SDS011;32536;47.128;8.746;2022-11-13T14:34:06;2.47;;;1.00;;
46777;SDS011;32536;47.128;8.746;2022-11-13T14:36:38;3.85;;;2.05;;
46777;SDS011;32536;47.128;8.746;2022-11-13T14:39:05;4.97;;;2.30;;
46777;SDS011;32536;47.128;8.746;2022-11-13T14:41:55;3.60;;;2.08;;
46777;SDS011;32536;47.128;8.746;2022-11-13T14:44:28;2.95;;;1.52;;
46777;SDS011;32536;47.128;8.746;2022-11-13T14:46:59;2.35;;;1.45;;
46777;SDS011;32536;47.128;8.746;2022-11-13T14:49:33;4.70;;;2.03;;
46777;SDS011;32536;47.128;8.746;2022-11-13T14:52:02;2.67;;;1.58;;
46777;SDS011;32536;47.128;8.746;2022-11-13T14:54:35;2.13;;;1.17;;
46777;SDS011;32536;47.128;8.746;2022-11-13T14:57:07;2.25;;;1.20;;
46777;SDS011;32536;47.128;8.746;2022-11-13T14:59:36;2.90;;;1.27;;
46777;SDS011;32536;47.128;8.746;2022-11-13T15:02:05;2.40;;;1.27;;
46777;SDS011;32536;47.128;8.746;2022-11-13T15:04:35;2.83;;;1.52;;
46777;SDS011;32536;47.128;8.746;2022-11-13T15:07:17;2.38;;;1.35;;
46777;SDS011;32536;47.128;8.746;2022-11-13T15:09:46;2.38;;;1.23;;
46777;SDS011;32536;47.128;8.746;2022-11-13T15:12:15;3.00;;;1.45;;
46777;SDS011;32536;47.128;8.746;2022-11-13T15:14:41;2.67;;;1.73;;
46777;SDS011;32536;47.128;8.746;2022-11-13T15:17:13;2.58;;;1.05;;
46777;SDS011;32536;47.128;8.746;2022-11-13T15:19:44;2.85;;;1.42;;
46777;SDS011;32536;47.128;8.746;2022-11-13T15:22:13;2.67;;;1.52;;
46777;SDS011;32536;47.128;8.746;2022-11-13T15:24:40;4.07;;;1.58;;
46777;SDS011;32536;47.128;8.746;2022-11-13T15:27:12;3.05;;;1.60;;
46777;SDS011;32536;47.128;8.746;2022-11-13T15:29:41;4.15;;;2.22;;
46777;SDS011;32536;47.128;8.746;2022-11-13T15:32:10;2.97;;;1.75;;
46777;SDS011;32536;47.128;8.746;2022-11-13T15:34:38;3.03;;;1.85;;
46777;SDS011;32536;47.128;8.746;2022-11-13T15:37:15;3.25;;;1.50;;
46777;SDS011;32536;47.128;8.746;2022-11-13T15:39:42;4.20;;;1.92;;
46777;SDS011;32536;47.128;8.746;2022-11-13T15:42:10;2.17;;;1.75;;
46777;SDS011;32536;47.128;8.746;2022-11-13T15:44:40;2.97;;;1.85;;
46777;SDS011;32536;47.128;8.746;2022-11-13T15:47:41;3.70;;;1.73;;
46777;SDS011;32536;47.128;8.746;2022-11-13T15:50:02;2.70;;;1.38;;
46777;SDS011;32536;47.128;8.746;2022-11-13T15:52:32;2.75;;;1.58;;
46777;SDS011;32536;47.128;8.746;2022-11-13T15:55:12;2.30;;;1.20;;
46777;SDS011;32536;47.128;8.746;2022-11-13T15:57:58;3.97;;;2.00;;
46777;SDS011;32536;47.128;8.746;2022-11-13T16:00:26;3.53;;;2.28;;
46777;SDS011;32536;47.128;8.746;2022-11-13T16:02:54;4.85;;;2.42;;
46777;SDS011;32536;47.128;8.746;2022-11-13T16:05:22;3.97;;;1.75;;
46777;SDS011;32536;47.128;8.746;2022-11-13T16:07:53;3.45;;;2.20;;
46777;SDS011;32536;47.128;8.746;2022-11-13T16:10:21;2.67;;;1.60;;
46777;SDS011;32536;47.128;8.746;2022-11-13T16:12:51;1.90;;;1.20;;
46777;SDS011;32536;47.128;8.746;2022-11-13T16:15:18;2.25;;;1.35;;
46777;SDS011;32536;47.128;8.746;2022-11-13T16:17:47;2.83;;;1.33;;
46777;SDS011;32536;47.128;8.746;2022-11-13T16:20:17;2.63;;;1.15;;
46777;SDS011;32536;47.128;8.746;2022-11-13T16:22:44;3.70;;;2.15;;
46777;SDS011;32536;47.128;8.746;2022-11-13T16:25:16;2.67;;;1.33;;
46777;SDS011;32536;47.128;8.746;2022-11-13T16:27:45;3.28;;;1.85;;
46777;SDS011;32536;47.128;8.746;2022-11-13T16:30:16;2.13;;;1.00;;
46777;SDS011;32536;47.128;8.746;2022-11-13T16:32:46;3.35;;;1.77;;
46777;SDS011;32536;47.128;8.746;2022-11-13T16:35:13;3.22;;;1.50;;
46777;SDS011;32536;47.128;8.746;2022-11-13T16:37:43;3.90;;;1.55;;
46777;SDS011;32536;47.128;8.746;2022-11-13T16:40:23;2.78;;;1.50;;
46777;SDS011;32536;47.128;8.746;2022-11-13T16:42:51;2.88;;;1.52;;
46777;SDS011;32536;47.128;8.746;2022-11-13T16:45:18;3.67;;;1.80;;
46777;SDS011;32536;47.128;8.746;2022-11-13T16:47:46;2.83;;;1.42;;
46777;SDS011;32536;47.128;8.746;2022-11-13T16:50:16;2.63;;;1.65;;
46777;SDS011;32536;47.128;8.746;2022-11-13T16:52:53;4.28;;;2.35;;
46777;SDS011;32536;47.128;8.746;2022-11-13T16:55:21;4.38;;;2.13;;
46777;SDS011;32536;47.128;8.746;2022-11-13T16:57:48;3.85;;;2.20;;
46777;SDS011;32536;47.128;8.746;2022-11-13T17:00:16;5.93;;;2.75;;
46777;SDS011;32536;47.128;8.746;2022-11-13T17:02:45;4.07;;;2.40;;
46777;SDS011;32536;47.128;8.746;2022-11-13T17:05:17;3.55;;;1.63;;
46777;SDS011;32536;47.128;8.746;2022-11-13T17:07:46;3.45;;;1.50;;
46777;SDS011;32536;47.128;8.746;2022-11-13T17:10:18;4.20;;;2.08;;
46777;SDS011;32536;47.128;8.746;2022-11-13T17:12:52;6.00;;;3.30;;
46777;SDS011;32536;47.128;8.746;2022-11-13T17:15:20;6.38;;;3.53;;